sensor_id;sensor_type;location;lat;lon;timestamp;P1;durP1;ratioP1;P2;durP2;ratioP2
53642;SDS011;39546;45.534;12.048;2023-04-06T00:05:44;20.98;;;15.18;;
53642;SDS011;39546;45.534;12.048;2023-04-06T00:11:48;19.40;;;13.30;;
53642;SDS011;39546;45.534;12.048;2023-04-06T00:17:58;21.95;;;14.63;;
53642;SDS011;39546;45.534;12.048;2023-04-06T00:24:38;16.10;;;12.37;;
53642;SDS011;39546;45.534;12.048;2023-04-06T00:30:41;12.95;;;10.80;;
53642;SDS011;39546;45.534;12.048;2023-04-06T00:36:43;13.95;;;11.60;;
53642;SDS011;39546;45.534;12.048;2023-04-06T00:42:45;23.02;;;12.02;;
53642;SDS011;39546;45.534;12.048;2023-04-06T00:48:48;21.15;;;12.98;;
53642;SDS011;39546;45.534;12.048;2023-04-06T00:54:50;14.77;;;11.73;;
53642;SDS011;39546;45.534;12.048;2023-04-06T01:00:53;14.45;;;10.00;;
53642;SDS011;39546;45.534;12.048;2023-04-06T01:06:56;16.20;;;12.85;;
53642;SDS011;39546;45.534;12.048;2023-04-06T01:13:04;14.32;;;9.63;;
53642;SDS011;39546;45.534;12.048;2023-04-06T01:19:12;14.23;;;8.90;;
53642;SDS011;39546;45.534;12.048;2023-04-06T01:25:15;9.63;;;7.85;;
53642;SDS011;39546;45.534;12.048;2023-04-06T01:31:19;12.30;;;9.23;;
53642;SDS011;39546;45.534;12.048;2023-04-06T01:37:22;13.55;;;9.60;;
53642;SDS011;39546;45.534;12.048;2023-04-06T01:43:27;17.62;;;10.52;;
53642;SDS011;39546;45.534;12.048;2023-04-06T01:49:30;11.70;;;9.30;;
53642;SDS011;39546;45.534;12.048;2023-04-06T01:55:33;10.55;;;7.93;;
53642;SDS011;39546;45.534;12.048;2023-04-06T02:01:38;12.50;;;9.70;;
53642;SDS011;39546;45.534;12.048;2023-04-06T02:07:40;15.13;;;11.70;;
53642;SDS011;39546;45.534;12.048;2023-04-06T02:13:44;12.40;;;8.68;;
53642;SDS011;39546;45.534;12.048;2023-04-06T02:19:46;15.35;;;10.45;;
53642;SDS011;39546;45.534;12.048;2023-04-06T02:25:49;11.40;;;8.48;;
53642;SDS011;39546;45.534;12.048;2023-04-06T02:31:54;11.27;;;9.20;;
53642;SDS011;39546;45.534;12.048;2023-04-06T02:38:03;10.00;;;6.80;;
53642;SDS011;39546;45.534;12.048;2023-04-06T02:44:07;10.30;;;8.05;;
53642;SDS011;39546;45.534;12.048;2023-04-06T02:50:11;10.85;;;9.13;;
53642;SDS011;39546;45.534;12.048;2023-04-06T02:56:16;10.40;;;8.60;;
53642;SDS011;39546;45.534;12.048;2023-04-06T03:02:19;12.13;;;8.88;;
53642;SDS011;39546;45.534;12.048;2023-04-06T03:08:22;12.75;;;10.00;;
53642;SDS011;39546;45.534;12.048;2023-04-06T03:14:25;18.15;;;9.00;;
53642;SDS011;39546;45.534;12.048;2023-04-06T03:20:30;11.73;;;8.13;;
53642;SDS011;39546;45.534;12.048;2023-04-06T03:26:33;7.68;;;5.57;;
53642;SDS011;39546;45.534;12.048;2023-04-06T03:32:37;8.18;;;5.80;;
53642;SDS011;39546;45.534;12.048;2023-04-06T03:38:39;13.45;;;7.65;;
53642;SDS011;39546;45.534;12.048;2023-04-06T03:44:42;11.48;;;7.30;;
53642;SDS011;39546;45.534;12.048;2023-04-06T03:50:45;10.40;;;8.73;;
53642;SDS011;39546;45.534;12.048;2023-04-06T03:56:47;13.95;;;9.60;;
53642;SDS011;39546;45.534;12.048;2023-04-06T04:03:05;11.15;;;8.68;;
53642;SDS011;39546;45.534;12.048;2023-04-06T04:09:07;14.13;;;9.18;;
53642;SDS011;39546;45.534;12.048;2023-04-06T04:15:09;12.37;;;9.52;;
53642;SDS011;39546;45.534;12.048;2023-04-06T04:21:11;10.30;;;6.70;;
53642;SDS011;39546;45.534;12.048;2023-04-06T04:27:18;12.32;;;6.47;;
53642;SDS011;39546;45.534;12.048;2023-04-06T04:33:23;8.98;;;6.00;;
53642;SDS011;39546;45.534;12.048;2023-04-06T04:39:26;8.48;;;5.30;;
53642;SDS011;39546;45.534;12.048;2023-04-06T04:45:30;10.43;;;6.68;;
53642;SDS011;39546;45.534;12.048;2023-04-06T04:51:33;17.23;;;9.20;;
53642;SDS011;39546;45.534;12.048;2023-04-06T04:57:36;8.43;;;5.93;;
53642;SDS011;39546;45.534;12.048;2023-04-06T05:03:39;9.93;;;8.68;;
53642;SDS011;39546;45.534;12.048;2023-04-06T05:09:42;8.18;;;5.78;;
53642;SDS011;39546;45.534;12.048;2023-04-06T05:15:45;11.77;;;8.57;;
53642;SDS011;39546;45.534;12.048;2023-04-06T05:21:48;8.48;;;6.45;;
53642;SDS011;39546;45.534;12.048;2023-04-06T05:27:50;10.07;;;7.68;;
53642;SDS011;39546;45.534;12.048;2023-04-06T05:33:54;7.97;;;4.62;;
53642;SDS011;39546;45.534;12.048;2023-04-06T05:39:58;8.77;;;5.72;;
53642;SDS011;39546;45.534;12.048;2023-04-06T05:46:00;10.18;;;6.57;;
53642;SDS011;39546;45.534;12.048;2023-04-06T05:52:03;10.98;;;7.07;;
53642;SDS011;39546;45.534;12.048;2023-04-06T05:58:06;9.38;;;6.90;;
53642;SDS011;39546;45.534;12.048;2023-04-06T06:04:08;7.80;;;5.75;;
53642;SDS011;39546;45.534;12.048;2023-04-06T06:10:12;12.23;;;7.07;;
53642;SDS011;39546;45.534;12.048;2023-04-06T06:16:14;8.45;;;4.95;;
53642;SDS011;39546;45.534;12.048;2023-04-06T06:22:17;11.50;;;7.93;;
53642;SDS011;39546;45.534;12.048;2023-04-06T06:28:19;8.23;;;6.35;;
53642;SDS011;39546;45.534;12.048;2023-04-06T06:34:22;10.95;;;5.97;;
53642;SDS011;39546;45.534;12.048;2023-04-06T06:40:24;5.90;;;4.93;;
53642;SDS011;39546;45.534;12.048;2023-04-06T06:46:28;7.45;;;4.37;;
53642;SDS011;39546;45.534;12.048;2023-04-06T06:52:31;8.52;;;4.50;;
53642;SDS011;39546;45.534;12.048;2023-04-06T06:58:34;9.57;;;5.72;;
53642;SDS011;39546;45.534;12.048;2023-04-06T07:04:36;5.87;;;3.80;;
53642;SDS011;39546;45.534;12.048;2023-04-06T07:10:39;11.38;;;4.03;;
53642;SDS011;39546;45.534;12.048;2023-04-06T07:16:42;4.25;;;2.60;;
53642;SDS011;39546;45.534;12.048;2023-04-06T07:22:46;3.62;;;2.92;;
53642;SDS011;39546;45.534;12.048;2023-04-06T07:28:49;9.07;;;4.68;;
53642;SDS011;39546;45.534;12.048;2023-04-06T07:34:52;8.68;;;5.05;;
53642;SDS011;39546;45.534;12.048;2023-04-06T07:40:54;6.15;;;3.90;;
53642;SDS011;39546;45.534;12.048;2023-04-06T07:46:57;10.15;;;4.80;;
53642;SDS011;39546;45.534;12.048;2023-04-06T07:53:00;6.55;;;4.30;;
53642;SDS011;39546;45.534;12.048;2023-04-06T07:59:04;6.80;;;3.67;;
53642;SDS011;39546;45.534;12.048;2023-04-06T08:05:06;8.30;;;5.68;;
53642;SDS011;39546;45.534;12.048;2023-04-06T08:11:09;12.88;;;6.45;;
53642;SDS011;39546;45.534;12.048;2023-04-06T08:17:11;11.80;;;7.50;;
53642;SDS011;39546;45.534;12.048;2023-04-06T08:23:13;10.57;;;3.97;;
53642;SDS011;39546;45.534;12.048;2023-04-06T08:29:15;10.70;;;5.90;;
53642;SDS011;39546;45.534;12.048;2023-04-06T08:35:18;7.05;;;4.35;;
53642;SDS011;39546;45.534;12.048;2023-04-06T08:41:20;7.97;;;5.43;;
53642;SDS011;39546;45.534;12.048;2023-04-06T08:47:22;10.40;;;5.47;;
53642;SDS011;39546;45.534;12.048;2023-04-06T08:53:25;7.72;;;5.45;;
53642;SDS011;39546;45.534;12.048;2023-04-06T08:59:27;8.23;;;3.35;;
53642;SDS011;39546;45.534;12.048;2023-04-06T09:05:30;7.45;;;5.50;;
53642;SDS011;39546;45.534;12.048;2023-04-06T09:11:42;5.45;;;3.17;;
53642;SDS011;39546;45.534;12.048;2023-04-06T09:17:45;5.43;;;2.60;;
53642;SDS011;39546;45.534;12.048;2023-04-06T09:23:57;4.32;;;2.67;;
53642;SDS011;39546;45.534;12.048;2023-04-06T09:30:07;4.68;;;2.47;;
53642;SDS011;39546;45.534;12.048;2023-04-06T09:36:11;4.80;;;2.45;;
53642;SDS011;39546;45.534;12.048;2023-04-06T09:42:24;7.12;;;3.22;;
53642;SDS011;39546;45.534;12.048;2023-04-06T09:48:27;8.30;;;4.37;;
53642;SDS011;39546;45.534;12.048;2023-04-06T09:54:32;5.10;;;3.20;;
53642;SDS011;39546;45.534;12.048;2023-04-06T10:00:43;9.00;;;3.60;;
53642;SDS011;39546;45.534;12.048;2023-04-06T10:06:52;9.68;;;4.45;;
53642;SDS011;39546;45.534;12.048;2023-04-06T10:12:55;7.05;;;4.00;;
53642;SDS011;39546;45.534;12.048;2023-04-06T10:19:02;3.97;;;2.62;;
53642;SDS011;39546;45.534;12.048;2023-04-06T10:25:11;10.30;;;6.87;;
53642;SDS011;39546;45.534;12.048;2023-04-06T10:31:13;6.68;;;4.18;;
53642;SDS011;39546;45.534;12.048;2023-04-06T10:37:16;6.70;;;4.55;;
53642;SDS011;39546;45.534;12.048;2023-04-06T10:43:21;7.82;;;4.18;;
53642;SDS011;39546;45.534;12.048;2023-04-06T10:49:26;6.18;;;3.90;;
53642;SDS011;39546;45.534;12.048;2023-04-06T10:55:29;6.87;;;3.92;;
53642;SDS011;39546;45.534;12.048;2023-04-06T11:01:32;7.68;;;3.25;;
53642;SDS011;39546;45.534;12.048;2023-04-06T11:07:34;4.05;;;3.12;;
53642;SDS011;39546;45.534;12.048;2023-04-06T11:13:38;12.40;;;7.90;;
53642;SDS011;39546;45.534;12.048;2023-04-06T11:19:44;8.60;;;5.85;;
53642;SDS011;39546;45.534;12.048;2023-04-06T11:25:50;9.40;;;4.95;;
53642;SDS011;39546;45.534;12.048;2023-04-06T11:31:54;7.47;;;3.97;;
53642;SDS011;39546;45.534;12.048;2023-04-06T11:38:02;10.23;;;5.25;;
53642;SDS011;39546;45.534;12.048;2023-04-06T11:44:05;8.80;;;7.05;;
53642;SDS011;39546;45.534;12.048;2023-04-06T11:50:08;13.35;;;8.55;;
53642;SDS011;39546;45.534;12.048;2023-04-06T11:56:22;14.75;;;8.27;;
53642;SDS011;39546;45.534;12.048;2023-04-06T12:02:25;7.05;;;5.97;;
53642;SDS011;39546;45.534;12.048;2023-04-06T12:08:28;20.77;;;6.65;;
53642;SDS011;39546;45.534;12.048;2023-04-06T12:14:30;13.48;;;6.90;;
53642;SDS011;39546;45.534;12.048;2023-04-06T12:20:32;4.70;;;3.60;;
53642;SDS011;39546;45.534;12.048;2023-04-06T12:26:34;10.82;;;8.98;;
53642;SDS011;39546;45.534;12.048;2023-04-06T12:32:38;8.32;;;6.53;;
53642;SDS011;39546;45.534;12.048;2023-04-06T12:38:41;9.98;;;8.07;;
53642;SDS011;39546;45.534;12.048;2023-04-06T12:44:46;8.50;;;6.22;;
53642;SDS011;39546;45.534;12.048;2023-04-06T12:50:55;8.82;;;4.85;;
53642;SDS011;39546;45.534;12.048;2023-04-06T12:57:02;12.45;;;9.70;;
53642;SDS011;39546;45.534;12.048;2023-04-06T13:03:04;9.25;;;7.70;;
53642;SDS011;39546;45.534;12.048;2023-04-06T13:09:06;10.63;;;6.62;;
53642;SDS011;39546;45.534;12.048;2023-04-06T13:15:09;20.30;;;8.18;;
53642;SDS011;39546;45.534;12.048;2023-04-06T13:21:14;15.40;;;11.88;;
53642;SDS011;39546;45.534;12.048;2023-04-06T13:27:17;9.07;;;5.53;;
53642;SDS011;39546;45.534;12.048;2023-04-06T13:33:20;9.13;;;5.80;;
53642;SDS011;39546;45.534;12.048;2023-04-06T13:39:22;11.60;;;6.78;;
53642;SDS011;39546;45.534;12.048;2023-04-06T13:45:24;11.40;;;7.72;;
53642;SDS011;39546;45.534;12.048;2023-04-06T13:51:27;11.75;;;7.32;;
53642;SDS011;39546;45.534;12.048;2023-04-06T13:57:29;8.43;;;4.80;;
53642;SDS011;39546;45.534;12.048;2023-04-06T14:03:31;6.85;;;4.53;;
53642;SDS011;39546;45.534;12.048;2023-04-06T14:09:33;16.37;;;8.65;;
53642;SDS011;39546;45.534;12.048;2023-04-06T14:15:36;12.50;;;8.20;;
53642;SDS011;39546;45.534;12.048;2023-04-06T14:21:39;8.07;;;6.12;;
53642;SDS011;39546;45.534;12.048;2023-04-06T14:27:42;8.98;;;4.97;;
53642;SDS011;39546;45.534;12.048;2023-04-06T14:33:45;9.95;;;7.05;;
53642;SDS011;39546;45.534;12.048;2023-04-06T14:39:47;8.93;;;4.97;;
53642;SDS011;39546;45.534;12.048;2023-04-06T14:45:49;8.15;;;5.18;;
53642;SDS011;39546;45.534;12.048;2023-04-06T14:51:52;10.98;;;8.80;;
53642;SDS011;39546;45.534;12.048;2023-04-06T14:57:54;11.90;;;8.57;;
53642;SDS011;39546;45.534;12.048;2023-04-06T15:03:56;12.95;;;5.62;;
53642;SDS011;39546;45.534;12.048;2023-04-06T15:09:58;12.40;;;8.52;;
53642;SDS011;39546;45.534;12.048;2023-04-06T15:16:01;13.40;;;9.98;;
53642;SDS011;39546;45.534;12.048;2023-04-06T15:22:03;11.12;;;8.07;;
53642;SDS011;39546;45.534;12.048;2023-04-06T15:28:05;13.60;;;8.18;;
53642;SDS011;39546;45.534;12.048;2023-04-06T15:34:08;12.02;;;8.30;;
53642;SDS011;39546;45.534;12.048;2023-04-06T15:40:10;15.48;;;8.98;;
53642;SDS011;39546;45.534;12.048;2023-04-06T15:46:14;14.98;;;9.43;;
53642;SDS011;39546;45.534;12.048;2023-04-06T15:52:17;12.55;;;8.63;;
53642;SDS011;39546;45.534;12.048;2023-04-06T15:58:19;9.57;;;6.32;;
53642;SDS011;39546;45.534;12.048;2023-04-06T16:04:21;14.50;;;10.52;;
53642;SDS011;39546;45.534;12.048;2023-04-06T16:10:23;10.38;;;7.07;;
53642;SDS011;39546;45.534;12.048;2023-04-06T16:16:26;10.48;;;5.75;;
53642;SDS011;39546;45.534;12.048;2023-04-06T16:22:28;14.25;;;8.85;;
53642;SDS011;39546;45.534;12.048;2023-04-06T16:28:30;9.32;;;6.00;;
53642;SDS011;39546;45.534;12.048;2023-04-06T16:34:33;6.03;;;3.55;;
53642;SDS011;39546;45.534;12.048;2023-04-06T16:40:35;6.80;;;4.65;;
53642;SDS011;39546;45.534;12.048;2023-04-06T16:46:37;12.80;;;4.60;;
53642;SDS011;39546;45.534;12.048;2023-04-06T16:52:40;6.10;;;3.53;;
53642;SDS011;39546;45.534;12.048;2023-04-06T16:58:42;5.53;;;3.80;;
53642;SDS011;39546;45.534;12.048;2023-04-06T17:04:45;7.95;;;4.68;;
53642;SDS011;39546;45.534;12.048;2023-04-06T17:10:48;6.12;;;4.78;;
53642;SDS011;39546;45.534;12.048;2023-04-06T17:16:50;8.52;;;5.03;;
53642;SDS011;39546;45.534;12.048;2023-04-06T17:22:52;8.13;;;4.20;;
53642;SDS011;39546;45.534;12.048;2023-04-06T17:28:54;5.68;;;2.97;;
53642;SDS011;39546;45.534;12.048;2023-04-06T17:34:56;8.68;;;5.22;;
53642;SDS011;39546;45.534;12.048;2023-04-06T17:40:59;8.52;;;4.95;;
53642;SDS011;39546;45.534;12.048;2023-04-06T17:47:02;6.45;;;3.97;;
53642;SDS011;39546;45.534;12.048;2023-04-06T17:53:04;9.90;;;6.10;;
53642;SDS011;39546;45.534;12.048;2023-04-06T17:59:06;9.07;;;5.90;;
53642;SDS011;39546;45.534;12.048;2023-04-06T18:05:11;9.68;;;5.28;;
53642;SDS011;39546;45.534;12.048;2023-04-06T18:11:15;9.13;;;5.87;;
53642;SDS011;39546;45.534;12.048;2023-04-06T18:17:19;11.35;;;7.05;;
53642;SDS011;39546;45.534;12.048;2023-04-06T18:23:21;7.37;;;4.82;;
53642;SDS011;39546;45.534;12.048;2023-04-06T18:29:23;6.10;;;4.45;;
53642;SDS011;39546;45.534;12.048;2023-04-06T18:35:25;7.68;;;4.95;;
53642;SDS011;39546;45.534;12.048;2023-04-06T18:41:27;6.47;;;4.68;;
53642;SDS011;39546;45.534;12.048;2023-04-06T18:47:29;7.95;;;5.28;;
53642;SDS011;39546;45.534;12.048;2023-04-06T18:53:32;13.20;;;9.90;;
53642;SDS011;39546;45.534;12.048;2023-04-06T18:59:35;9.60;;;6.72;;
53642;SDS011;39546;45.534;12.048;2023-04-06T19:05:41;6.43;;;4.70;;
53642;SDS011;39546;45.534;12.048;2023-04-06T19:11:43;6.40;;;5.18;;
53642;SDS011;39546;45.534;12.048;2023-04-06T19:17:45;6.47;;;4.93;;
53642;SDS011;39546;45.534;12.048;2023-04-06T19:23:49;6.75;;;5.20;;
53642;SDS011;39546;45.534;12.048;2023-04-06T19:29:52;7.43;;;5.50;;
53642;SDS011;39546;45.534;12.048;2023-04-06T19:35:55;8.73;;;5.95;;
53642;SDS011;39546;45.534;12.048;2023-04-06T19:41:57;8.00;;;4.70;;
53642;SDS011;39546;45.534;12.048;2023-04-06T19:47:59;8.55;;;4.85;;
53642;SDS011;39546;45.534;12.048;2023-04-06T19:54:02;8.27;;;6.00;;
53642;SDS011;39546;45.534;12.048;2023-04-06T20:00:06;10.00;;;6.55;;
53642;SDS011;39546;45.534;12.048;2023-04-06T20:06:10;8.50;;;6.15;;
53642;SDS011;39546;45.534;12.048;2023-04-06T20:12:12;14.23;;;9.35;;
53642;SDS011;39546;45.534;12.048;2023-04-06T20:18:14;9.32;;;6.90;;
53642;SDS011;39546;45.534;12.048;2023-04-06T20:24:17;10.23;;;7.60;;
53642;SDS011;39546;45.534;12.048;2023-04-06T20:30:19;10.02;;;7.93;;
53642;SDS011;39546;45.534;12.048;2023-04-06T20:36:22;10.63;;;6.47;;
53642;SDS011;39546;45.534;12.048;2023-04-06T20:42:24;9.13;;;6.72;;
53642;SDS011;39546;45.534;12.048;2023-04-06T20:48:26;11.80;;;8.40;;
53642;SDS011;39546;45.534;12.048;2023-04-06T20:54:30;12.15;;;9.88;;
53642;SDS011;39546;45.534;12.048;2023-04-06T21:00:32;10.70;;;8.23;;
53642;SDS011;39546;45.534;12.048;2023-04-06T21:06:35;9.85;;;8.40;;
53642;SDS011;39546;45.534;12.048;2023-04-06T21:12:37;16.42;;;12.27;;
53642;SDS011;39546;45.534;12.048;2023-04-06T21:18:39;15.30;;;12.75;;
53642;SDS011;39546;45.534;12.048;2023-04-06T21:24:41;8.95;;;7.90;;
53642;SDS011;39546;45.534;12.048;2023-04-06T21:30:44;13.30;;;11.12;;
53642;SDS011;39546;45.534;12.048;2023-04-06T21:36:46;15.75;;;12.50;;
53642;SDS011;39546;45.534;12.048;2023-04-06T21:42:48;11.30;;;8.95;;
53642;SDS011;39546;45.534;12.048;2023-04-06T21:48:50;14.73;;;10.93;;
53642;SDS011;39546;45.534;12.048;2023-04-06T21:54:52;13.50;;;8.93;;
53642;SDS011;39546;45.534;12.048;2023-04-06T22:00:54;12.57;;;10.65;;
53642;SDS011;39546;45.534;12.048;2023-04-06T22:06:56;9.98;;;8.43;;
53642;SDS011;39546;45.534;12.048;2023-04-06T22:12:58;17.77;;;12.63;;
53642;SDS011;39546;45.534;12.048;2023-04-06T22:19:00;13.45;;;10.63;;
53642;SDS011;39546;45.534;12.048;2023-04-06T22:25:02;13.10;;;9.20;;
53642;SDS011;39546;45.534;12.048;2023-04-06T22:31:05;14.75;;;10.68;;
53642;SDS011;39546;45.534;12.048;2023-04-06T22:37:07;13.20;;;8.77;;
53642;SDS011;39546;45.534;12.048;2023-04-06T22:43:09;11.23;;;8.35;;
53642;SDS011;39546;45.534;12.048;2023-04-06T22:49:11;14.48;;;12.00;;
53642;SDS011;39546;45.534;12.048;2023-04-06T22:55:13;22.92;;;13.13;;
53642;SDS011;39546;45.534;12.048;2023-04-06T23:01:15;9.35;;;8.10;;
53642;SDS011;39546;45.534;12.048;2023-04-06T23:07:17;11.57;;;8.38;;
53642;SDS011;39546;45.534;12.048;2023-04-06T23:13:19;13.45;;;10.95;;
53642;SDS011;39546;45.534;12.048;2023-04-06T23:19:21;13.85;;;9.60;;
53642;SDS011;39546;45.534;12.048;2023-04-06T23:25:23;14.30;;;12.80;;
53642;SDS011;39546;45.534;12.048;2023-04-06T23:31:25;8.65;;;7.55;;
53642;SDS011;39546;45.534;12.048;2023-04-06T23:37:27;10.40;;;7.75;;
53642;SDS011;39546;45.534;12.048;2023-04-06T23:43:29;14.63;;;9.35;;
53642;SDS011;39546;45.534;12.048;2023-04-06T23:49:32;11.00;;;8.40;;
53642;SDS011;39546;45.534;12.048;2023-04-06T23:55:34;13.35;;;10.30;;
